sensor_id;sensor_type;location;lat;lon;timestamp;P1;durP1;ratioP1;P2;durP2;ratioP2
80621;SDS011;69980;51.914;7.526;2024-01-30T00:01:35;13.48;;;9.75;;
80621;SDS011;69980;51.914;7.526;2024-01-30T00:04:01;11.48;;;9.43;;
80621;SDS011;69980;51.914;7.526;2024-01-30T00:06:26;12.77;;;9.05;;
80621;SDS011;69980;51.914;7.526;2024-01-30T00:08:52;11.75;;;8.98;;
80621;SDS011;69980;51.914;7.526;2024-01-30T00:11:17;12.90;;;8.85;;
80621;SDS011;69980;51.914;7.526;2024-01-30T00:13:42;12.27;;;9.52;;
80621;SDS011;69980;51.914;7.526;2024-01-30T00:16:08;14.38;;;9.30;;
80621;SDS011;69980;51.914;7.526;2024-01-30T00:18:33;13.30;;;9.98;;
80621;SDS011;69980;51.914;7.526;2024-01-30T00:20:59;12.20;;;9.50;;
80621;SDS011;69980;51.914;7.526;2024-01-30T00:23:24;12.48;;;9.80;;
80621;SDS011;69980;51.914;7.526;2024-01-30T00:25:50;11.90;;;9.15;;
80621;SDS011;69980;51.914;7.526;2024-01-30T00:28:15;12.15;;;9.68;;
80621;SDS011;69980;51.914;7.526;2024-01-30T00:30:40;11.55;;;9.57;;
80621;SDS011;69980;51.914;7.526;2024-01-30T00:33:05;12.90;;;9.15;;
80621;SDS011;69980;51.914;7.526;2024-01-30T00:35:31;10.90;;;8.77;;
80621;SDS011;69980;51.914;7.526;2024-01-30T00:37:56;11.80;;;9.15;;
80621;SDS011;69980;51.914;7.526;2024-01-30T00:40:22;13.05;;;9.77;;
80621;SDS011;69980;51.914;7.526;2024-01-30T00:42:47;12.43;;;9.02;;
80621;SDS011;69980;51.914;7.526;2024-01-30T00:45:15;12.23;;;9.38;;
80621;SDS011;69980;51.914;7.526;2024-01-30T00:47:41;11.60;;;8.60;;
80621;SDS011;69980;51.914;7.526;2024-01-30T00:50:07;13.15;;;9.43;;
80621;SDS011;69980;51.914;7.526;2024-01-30T00:52:32;11.90;;;9.23;;
80621;SDS011;69980;51.914;7.526;2024-01-30T00:54:58;11.25;;;8.82;;
80621;SDS011;69980;51.914;7.526;2024-01-30T00:57:23;11.68;;;9.10;;
80621;SDS011;69980;51.914;7.526;2024-01-30T00:59:48;12.65;;;8.68;;
80621;SDS011;69980;51.914;7.526;2024-01-30T01:02:14;11.38;;;8.95;;
80621;SDS011;69980;51.914;7.526;2024-01-30T01:04:39;14.13;;;9.77;;
80621;SDS011;69980;51.914;7.526;2024-01-30T01:07:05;12.43;;;9.18;;
80621;SDS011;69980;51.914;7.526;2024-01-30T01:09:30;12.85;;;9.43;;
80621;SDS011;69980;51.914;7.526;2024-01-30T01:11:55;13.07;;;8.70;;
80621;SDS011;69980;51.914;7.526;2024-01-30T01:14:20;11.43;;;9.30;;
80621;SDS011;69980;51.914;7.526;2024-01-30T01:16:46;11.18;;;8.85;;
80621;SDS011;69980;51.914;7.526;2024-01-30T01:19:11;12.50;;;8.60;;
80621;SDS011;69980;51.914;7.526;2024-01-30T01:21:36;11.52;;;8.82;;
80621;SDS011;69980;51.914;7.526;2024-01-30T01:24:02;12.63;;;9.23;;
80621;SDS011;69980;51.914;7.526;2024-01-30T01:26:27;11.15;;;8.85;;
80621;SDS011;69980;51.914;7.526;2024-01-30T01:28:53;11.45;;;9.23;;
80621;SDS011;69980;51.914;7.526;2024-01-30T01:31:18;13.02;;;8.88;;
80621;SDS011;69980;51.914;7.526;2024-01-30T01:33:43;12.05;;;9.90;;
80621;SDS011;69980;51.914;7.526;2024-01-30T01:36:08;11.23;;;8.80;;
80621;SDS011;69980;51.914;7.526;2024-01-30T01:38:34;13.88;;;9.38;;
80621;SDS011;69980;51.914;7.526;2024-01-30T01:40:59;12.00;;;9.38;;
80621;SDS011;69980;51.914;7.526;2024-01-30T01:43:24;11.80;;;8.75;;
80621;SDS011;69980;51.914;7.526;2024-01-30T01:45:50;10.85;;;8.80;;
80621;SDS011;69980;51.914;7.526;2024-01-30T01:48:15;12.68;;;9.18;;
80621;SDS011;69980;51.914;7.526;2024-01-30T01:50:41;11.57;;;8.88;;
80621;SDS011;69980;51.914;7.526;2024-01-30T01:53:07;11.73;;;8.30;;
80621;SDS011;69980;51.914;7.526;2024-01-30T01:55:32;11.02;;;8.70;;
80621;SDS011;69980;51.914;7.526;2024-01-30T01:57:58;11.05;;;8.45;;
80621;SDS011;69980;51.914;7.526;2024-01-30T02:00:24;12.77;;;9.20;;
80621;SDS011;69980;51.914;7.526;2024-01-30T02:02:49;11.85;;;8.25;;
80621;SDS011;69980;51.914;7.526;2024-01-30T02:05:15;12.43;;;8.90;;
80621;SDS011;69980;51.914;7.526;2024-01-30T02:07:40;12.43;;;8.85;;
80621;SDS011;69980;51.914;7.526;2024-01-30T02:10:07;12.10;;;9.35;;
80621;SDS011;69980;51.914;7.526;2024-01-30T02:12:33;12.60;;;9.35;;
80621;SDS011;69980;51.914;7.526;2024-01-30T02:14:58;10.95;;;8.70;;
80621;SDS011;69980;51.914;7.526;2024-01-30T02:17:23;14.05;;;10.00;;
80621;SDS011;69980;51.914;7.526;2024-01-30T02:19:49;12.38;;;8.40;;
80621;SDS011;69980;51.914;7.526;2024-01-30T02:22:14;12.40;;;8.90;;
80621;SDS011;69980;51.914;7.526;2024-01-30T02:24:39;12.95;;;9.88;;
80621;SDS011;69980;51.914;7.526;2024-01-30T02:27:05;12.07;;;9.70;;
80621;SDS011;69980;51.914;7.526;2024-01-30T02:29:30;13.02;;;9.52;;
80621;SDS011;69980;51.914;7.526;2024-01-30T02:31:55;12.27;;;9.48;;
80621;SDS011;69980;51.914;7.526;2024-01-30T02:34:20;14.20;;;9.98;;
80621;SDS011;69980;51.914;7.526;2024-01-30T02:36:46;12.40;;;9.52;;
80621;SDS011;69980;51.914;7.526;2024-01-30T02:39:11;12.23;;;9.38;;
80621;SDS011;69980;51.914;7.526;2024-01-30T02:41:36;13.15;;;10.20;;
80621;SDS011;69980;51.914;7.526;2024-01-30T02:44:02;12.18;;;8.93;;
80621;SDS011;69980;51.914;7.526;2024-01-30T02:46:29;13.55;;;9.57;;
80621;SDS011;69980;51.914;7.526;2024-01-30T02:48:54;12.10;;;10.00;;
80621;SDS011;69980;51.914;7.526;2024-01-30T02:51:19;14.32;;;9.23;;
80621;SDS011;69980;51.914;7.526;2024-01-30T02:53:45;15.45;;;9.68;;
80621;SDS011;69980;51.914;7.526;2024-01-30T02:56:10;14.82;;;10.27;;
80621;SDS011;69980;51.914;7.526;2024-01-30T02:58:36;13.20;;;9.52;;
80621;SDS011;69980;51.914;7.526;2024-01-30T03:01:02;14.25;;;9.50;;
80621;SDS011;69980;51.914;7.526;2024-01-30T03:03:27;12.80;;;10.20;;
80621;SDS011;69980;51.914;7.526;2024-01-30T03:05:53;11.48;;;9.27;;
80621;SDS011;69980;51.914;7.526;2024-01-30T03:08:18;11.85;;;9.27;;
80621;SDS011;69980;51.914;7.526;2024-01-30T03:10:44;12.90;;;9.15;;
80621;SDS011;69980;51.914;7.526;2024-01-30T03:13:09;12.65;;;9.10;;
80621;SDS011;69980;51.914;7.526;2024-01-30T03:15:34;10.70;;;8.50;;
80621;SDS011;69980;51.914;7.526;2024-01-30T03:17:59;12.23;;;9.38;;
80621;SDS011;69980;51.914;7.526;2024-01-30T03:20:25;12.80;;;9.82;;
80621;SDS011;69980;51.914;7.526;2024-01-30T03:22:50;11.65;;;9.15;;
80621;SDS011;69980;51.914;7.526;2024-01-30T03:25:15;11.35;;;8.73;;
80621;SDS011;69980;51.914;7.526;2024-01-30T03:27:41;13.50;;;9.57;;
80621;SDS011;69980;51.914;7.526;2024-01-30T03:30:06;13.20;;;8.82;;
80621;SDS011;69980;51.914;7.526;2024-01-30T03:32:32;10.18;;;8.27;;
80621;SDS011;69980;51.914;7.526;2024-01-30T03:34:57;10.23;;;7.82;;
80621;SDS011;69980;51.914;7.526;2024-01-30T03:37:22;11.68;;;9.02;;
80621;SDS011;69980;51.914;7.526;2024-01-30T03:39:48;14.38;;;9.20;;
80621;SDS011;69980;51.914;7.526;2024-01-30T03:42:13;12.77;;;9.25;;
80621;SDS011;69980;51.914;7.526;2024-01-30T03:44:38;14.32;;;9.68;;
80621;SDS011;69980;51.914;7.526;2024-01-30T03:47:04;13.05;;;9.52;;
80621;SDS011;69980;51.914;7.526;2024-01-30T03:49:29;12.32;;;9.70;;
80621;SDS011;69980;51.914;7.526;2024-01-30T03:51:55;13.27;;;9.73;;
80621;SDS011;69980;51.914;7.526;2024-01-30T03:54:20;12.40;;;9.30;;
80621;SDS011;69980;51.914;7.526;2024-01-30T03:56:45;11.52;;;8.82;;
80621;SDS011;69980;51.914;7.526;2024-01-30T03:59:10;12.00;;;9.77;;
80621;SDS011;69980;51.914;7.526;2024-01-30T04:01:36;13.57;;;9.50;;
80621;SDS011;69980;51.914;7.526;2024-01-30T04:04:01;15.48;;;9.60;;
80621;SDS011;69980;51.914;7.526;2024-01-30T04:06:26;13.07;;;9.63;;
80621;SDS011;69980;51.914;7.526;2024-01-30T04:08:51;13.48;;;9.48;;
80621;SDS011;69980;51.914;7.526;2024-01-30T04:11:20;15.75;;;10.35;;
80621;SDS011;69980;51.914;7.526;2024-01-30T04:13:45;13.57;;;10.27;;
80621;SDS011;69980;51.914;7.526;2024-01-30T04:16:18;13.38;;;10.00;;
80621;SDS011;69980;51.914;7.526;2024-01-30T04:18:44;14.30;;;10.23;;
80621;SDS011;69980;51.914;7.526;2024-01-30T04:21:10;12.85;;;9.25;;
80621;SDS011;69980;51.914;7.526;2024-01-30T04:23:35;12.02;;;9.30;;
80621;SDS011;69980;51.914;7.526;2024-01-30T04:26:00;13.02;;;9.98;;
80621;SDS011;69980;51.914;7.526;2024-01-30T04:28:26;12.07;;;9.73;;
80621;SDS011;69980;51.914;7.526;2024-01-30T04:30:51;14.98;;;10.18;;
80621;SDS011;69980;51.914;7.526;2024-01-30T04:33:16;13.68;;;9.48;;
80621;SDS011;69980;51.914;7.526;2024-01-30T04:35:42;13.35;;;9.02;;
80621;SDS011;69980;51.914;7.526;2024-01-30T04:38:07;15.18;;;9.88;;
80621;SDS011;69980;51.914;7.526;2024-01-30T04:40:32;12.88;;;9.13;;
80621;SDS011;69980;51.914;7.526;2024-01-30T04:42:57;12.95;;;9.60;;
80621;SDS011;69980;51.914;7.526;2024-01-30T04:45:23;13.93;;;9.88;;
80621;SDS011;69980;51.914;7.526;2024-01-30T04:47:48;13.57;;;10.15;;
80621;SDS011;69980;51.914;7.526;2024-01-30T04:50:13;12.15;;;9.20;;
80621;SDS011;69980;51.914;7.526;2024-01-30T04:52:39;10.65;;;8.75;;
80621;SDS011;69980;51.914;7.526;2024-01-30T04:55:04;11.02;;;8.68;;
80621;SDS011;69980;51.914;7.526;2024-01-30T04:57:30;12.35;;;9.43;;
80621;SDS011;69980;51.914;7.526;2024-01-30T04:59:55;13.38;;;10.00;;
80621;SDS011;69980;51.914;7.526;2024-01-30T05:02:20;12.75;;;8.90;;
80621;SDS011;69980;51.914;7.526;2024-01-30T05:04:46;16.40;;;10.30;;
80621;SDS011;69980;51.914;7.526;2024-01-30T05:07:11;12.70;;;9.68;;
80621;SDS011;69980;51.914;7.526;2024-01-30T05:09:36;14.98;;;10.18;;
80621;SDS011;69980;51.914;7.526;2024-01-30T05:12:02;15.98;;;10.70;;
80621;SDS011;69980;51.914;7.526;2024-01-30T05:14:27;14.15;;;9.98;;
80621;SDS011;69980;51.914;7.526;2024-01-30T05:16:53;12.85;;;9.55;;
80621;SDS011;69980;51.914;7.526;2024-01-30T05:19:18;13.98;;;9.80;;
80621;SDS011;69980;51.914;7.526;2024-01-30T05:21:43;14.13;;;10.35;;
80621;SDS011;69980;51.914;7.526;2024-01-30T05:24:10;13.55;;;9.15;;
80621;SDS011;69980;51.914;7.526;2024-01-30T05:26:35;12.30;;;9.88;;
80621;SDS011;69980;51.914;7.526;2024-01-30T05:29:01;12.27;;;8.35;;
80621;SDS011;69980;51.914;7.526;2024-01-30T05:31:26;13.82;;;10.85;;
80621;SDS011;69980;51.914;7.526;2024-01-30T05:33:51;13.52;;;9.52;;
80621;SDS011;69980;51.914;7.526;2024-01-30T05:36:16;11.10;;;8.90;;
80621;SDS011;69980;51.914;7.526;2024-01-30T05:38:42;11.55;;;8.65;;
80621;SDS011;69980;51.914;7.526;2024-01-30T05:41:08;15.57;;;10.00;;
80621;SDS011;69980;51.914;7.526;2024-01-30T05:43:33;13.02;;;9.45;;
80621;SDS011;69980;51.914;7.526;2024-01-30T05:45:59;13.93;;;9.93;;
80621;SDS011;69980;51.914;7.526;2024-01-30T05:48:24;14.18;;;9.43;;
80621;SDS011;69980;51.914;7.526;2024-01-30T05:50:49;14.13;;;9.85;;
80621;SDS011;69980;51.914;7.526;2024-01-30T05:53:14;13.55;;;9.77;;
80621;SDS011;69980;51.914;7.526;2024-01-30T05:55:40;14.73;;;11.10;;
80621;SDS011;69980;51.914;7.526;2024-01-30T05:58:05;16.05;;;10.32;;
80621;SDS011;69980;51.914;7.526;2024-01-30T06:00:30;15.18;;;10.88;;
80621;SDS011;69980;51.914;7.526;2024-01-30T06:02:56;16.23;;;11.30;;
80621;SDS011;69980;51.914;7.526;2024-01-30T06:05:21;14.98;;;10.80;;
80621;SDS011;69980;51.914;7.526;2024-01-30T06:07:46;14.32;;;10.82;;
80621;SDS011;69980;51.914;7.526;2024-01-30T06:10:12;16.95;;;11.13;;
80621;SDS011;69980;51.914;7.526;2024-01-30T06:12:37;14.98;;;9.73;;
80621;SDS011;69980;51.914;7.526;2024-01-30T06:15:02;15.77;;;10.52;;
80621;SDS011;69980;51.914;7.526;2024-01-30T06:17:28;16.38;;;10.88;;
80621;SDS011;69980;51.914;7.526;2024-01-30T06:19:55;14.20;;;10.52;;
80621;SDS011;69980;51.914;7.526;2024-01-30T06:22:20;14.25;;;10.18;;
80621;SDS011;69980;51.914;7.526;2024-01-30T06:24:46;12.73;;;9.68;;
80621;SDS011;69980;51.914;7.526;2024-01-30T06:27:11;12.32;;;8.88;;
80621;SDS011;69980;51.914;7.526;2024-01-30T06:29:36;13.40;;;9.40;;
80621;SDS011;69980;51.914;7.526;2024-01-30T06:32:02;14.32;;;10.32;;
80621;SDS011;69980;51.914;7.526;2024-01-30T06:34:27;13.30;;;9.88;;
80621;SDS011;69980;51.914;7.526;2024-01-30T06:36:53;16.15;;;9.95;;
80621;SDS011;69980;51.914;7.526;2024-01-30T06:39:18;15.18;;;10.25;;
80621;SDS011;69980;51.914;7.526;2024-01-30T06:41:43;13.10;;;9.80;;
80621;SDS011;69980;51.914;7.526;2024-01-30T06:44:09;13.98;;;10.10;;
80621;SDS011;69980;51.914;7.526;2024-01-30T06:46:34;12.00;;;8.23;;
80621;SDS011;69980;51.914;7.526;2024-01-30T06:49:00;13.32;;;9.35;;
80621;SDS011;69980;51.914;7.526;2024-01-30T06:51:25;12.95;;;9.30;;
80621;SDS011;69980;51.914;7.526;2024-01-30T06:53:50;14.13;;;9.63;;
80621;SDS011;69980;51.914;7.526;2024-01-30T06:56:16;12.63;;;9.52;;
80621;SDS011;69980;51.914;7.526;2024-01-30T06:58:41;13.57;;;9.38;;
80621;SDS011;69980;51.914;7.526;2024-01-30T07:01:06;12.65;;;8.77;;
80621;SDS011;69980;51.914;7.526;2024-01-30T07:03:32;15.55;;;10.02;;
80621;SDS011;69980;51.914;7.526;2024-01-30T07:05:57;13.77;;;9.75;;
80621;SDS011;69980;51.914;7.526;2024-01-30T07:08:22;13.93;;;9.75;;
80621;SDS011;69980;51.914;7.526;2024-01-30T07:10:47;14.57;;;9.70;;
80621;SDS011;69980;51.914;7.526;2024-01-30T07:13:13;13.02;;;9.48;;
80621;SDS011;69980;51.914;7.526;2024-01-30T07:15:38;14.23;;;9.18;;
80621;SDS011;69980;51.914;7.526;2024-01-30T07:18:04;17.05;;;9.55;;
80621;SDS011;69980;51.914;7.526;2024-01-30T07:20:30;12.20;;;9.02;;
80621;SDS011;69980;51.914;7.526;2024-01-30T07:22:56;14.30;;;8.95;;
80621;SDS011;69980;51.914;7.526;2024-01-30T07:25:21;11.85;;;9.05;;
80621;SDS011;69980;51.914;7.526;2024-01-30T07:27:46;13.43;;;8.75;;
80621;SDS011;69980;51.914;7.526;2024-01-30T07:30:12;11.52;;;8.80;;
80621;SDS011;69980;51.914;7.526;2024-01-30T07:32:37;13.27;;;9.27;;
80621;SDS011;69980;51.914;7.526;2024-01-30T07:35:03;13.32;;;8.80;;
80621;SDS011;69980;51.914;7.526;2024-01-30T07:37:28;13.55;;;8.50;;
80621;SDS011;69980;51.914;7.526;2024-01-30T07:39:53;11.80;;;8.45;;
80621;SDS011;69980;51.914;7.526;2024-01-30T07:42:19;12.57;;;8.38;;
80621;SDS011;69980;51.914;7.526;2024-01-30T07:44:44;10.35;;;7.88;;
80621;SDS011;69980;51.914;7.526;2024-01-30T07:47:09;12.15;;;9.00;;
80621;SDS011;69980;51.914;7.526;2024-01-30T07:49:34;11.00;;;8.13;;
80621;SDS011;69980;51.914;7.526;2024-01-30T07:52:00;12.27;;;8.35;;
80621;SDS011;69980;51.914;7.526;2024-01-30T07:54:25;11.10;;;7.72;;
80621;SDS011;69980;51.914;7.526;2024-01-30T07:56:51;11.93;;;8.85;;
80621;SDS011;69980;51.914;7.526;2024-01-30T07:59:16;13.48;;;9.00;;
80621;SDS011;69980;51.914;7.526;2024-01-30T08:01:42;12.45;;;8.50;;
80621;SDS011;69980;51.914;7.526;2024-01-30T08:04:07;12.07;;;8.18;;
80621;SDS011;69980;51.914;7.526;2024-01-30T08:06:32;13.98;;;8.43;;
80621;SDS011;69980;51.914;7.526;2024-01-30T08:08:58;12.00;;;8.40;;
80621;SDS011;69980;51.914;7.526;2024-01-30T08:11:23;10.57;;;7.40;;
80621;SDS011;69980;51.914;7.526;2024-01-30T08:13:48;10.90;;;7.90;;
80621;SDS011;69980;51.914;7.526;2024-01-30T08:16:15;10.35;;;7.90;;
80621;SDS011;69980;51.914;7.526;2024-01-30T08:18:40;10.82;;;8.10;;
80621;SDS011;69980;51.914;7.526;2024-01-30T08:21:06;13.55;;;8.90;;
80621;SDS011;69980;51.914;7.526;2024-01-30T08:23:31;11.63;;;8.65;;
80621;SDS011;69980;51.914;7.526;2024-01-30T08:25:56;12.20;;;8.75;;
80621;SDS011;69980;51.914;7.526;2024-01-30T08:28:22;9.90;;;8.07;;
80621;SDS011;69980;51.914;7.526;2024-01-30T08:30:47;10.80;;;8.27;;
80621;SDS011;69980;51.914;7.526;2024-01-30T08:33:12;11.23;;;7.50;;
80621;SDS011;69980;51.914;7.526;2024-01-30T08:35:38;12.43;;;7.90;;
80621;SDS011;69980;51.914;7.526;2024-01-30T08:38:03;10.82;;;7.88;;
80621;SDS011;69980;51.914;7.526;2024-01-30T08:40:29;11.23;;;8.18;;
80621;SDS011;69980;51.914;7.526;2024-01-30T08:42:54;10.88;;;8.38;;
80621;SDS011;69980;51.914;7.526;2024-01-30T08:45:19;12.65;;;8.43;;
80621;SDS011;69980;51.914;7.526;2024-01-30T08:47:45;11.07;;;7.80;;
80621;SDS011;69980;51.914;7.526;2024-01-30T08:50:10;15.15;;;8.80;;
80621;SDS011;69980;51.914;7.526;2024-01-30T08:52:38;11.18;;;7.97;;
80621;SDS011;69980;51.914;7.526;2024-01-30T08:55:04;12.05;;;8.27;;
80621;SDS011;69980;51.914;7.526;2024-01-30T08:57:29;13.05;;;8.60;;
80621;SDS011;69980;51.914;7.526;2024-01-30T08:59:54;9.60;;;7.68;;
80621;SDS011;69980;51.914;7.526;2024-01-30T09:02:20;11.35;;;7.55;;
80621;SDS011;69980;51.914;7.526;2024-01-30T09:04:45;10.82;;;7.80;;
80621;SDS011;69980;51.914;7.526;2024-01-30T09:07:11;13.23;;;8.02;;
80621;SDS011;69980;51.914;7.526;2024-01-30T09:09:40;10.93;;;7.85;;
80621;SDS011;69980;51.914;7.526;2024-01-30T09:12:06;9.90;;;7.72;;
80621;SDS011;69980;51.914;7.526;2024-01-30T09:14:32;12.50;;;8.10;;
80621;SDS011;69980;51.914;7.526;2024-01-30T09:16:57;10.80;;;7.22;;
80621;SDS011;69980;51.914;7.526;2024-01-30T09:19:22;12.40;;;8.40;;
80621;SDS011;69980;51.914;7.526;2024-01-30T09:21:48;9.10;;;7.15;;
80621;SDS011;69980;51.914;7.526;2024-01-30T09:24:13;11.75;;;7.57;;
80621;SDS011;69980;51.914;7.526;2024-01-30T09:26:38;11.95;;;7.72;;
80621;SDS011;69980;51.914;7.526;2024-01-30T09:29:04;11.57;;;7.28;;
80621;SDS011;69980;51.914;7.526;2024-01-30T09:31:29;9.90;;;7.50;;
80621;SDS011;69980;51.914;7.526;2024-01-30T09:33:54;10.60;;;8.20;;
80621;SDS011;69980;51.914;7.526;2024-01-30T09:36:20;10.02;;;7.90;;
80621;SDS011;69980;51.914;7.526;2024-01-30T09:38:45;10.38;;;7.93;;
80621;SDS011;69980;51.914;7.526;2024-01-30T09:41:10;9.68;;;7.70;;
80621;SDS011;69980;51.914;7.526;2024-01-30T09:43:36;10.80;;;7.78;;
80621;SDS011;69980;51.914;7.526;2024-01-30T09:46:02;9.30;;;6.88;;
80621;SDS011;69980;51.914;7.526;2024-01-30T09:48:29;12.57;;;7.97;;
80621;SDS011;69980;51.914;7.526;2024-01-30T09:50:55;12.27;;;8.05;;
80621;SDS011;69980;51.914;7.526;2024-01-30T09:53:22;12.07;;;7.72;;
80621;SDS011;69980;51.914;7.526;2024-01-30T09:55:47;10.45;;;7.40;;
80621;SDS011;69980;51.914;7.526;2024-01-30T09:58:15;10.27;;;7.63;;
80621;SDS011;69980;51.914;7.526;2024-01-30T10:00:40;9.95;;;7.28;;
80621;SDS011;69980;51.914;7.526;2024-01-30T10:03:05;11.02;;;7.70;;
80621;SDS011;69980;51.914;7.526;2024-01-30T10:05:31;12.18;;;7.40;;
80621;SDS011;69980;51.914;7.526;2024-01-30T10:07:56;9.90;;;7.13;;
80621;SDS011;69980;51.914;7.526;2024-01-30T10:10:25;10.23;;;6.88;;
80621;SDS011;69980;51.914;7.526;2024-01-30T10:12:50;9.60;;;7.03;;
80621;SDS011;69980;51.914;7.526;2024-01-30T10:15:16;9.18;;;6.90;;
80621;SDS011;69980;51.914;7.526;2024-01-30T10:17:43;9.15;;;6.57;;
80621;SDS011;69980;51.914;7.526;2024-01-30T10:20:09;11.23;;;6.97;;
80621;SDS011;69980;51.914;7.526;2024-01-30T10:22:35;8.48;;;6.70;;
80621;SDS011;69980;51.914;7.526;2024-01-30T10:25:00;8.98;;;6.47;;
80621;SDS011;69980;51.914;7.526;2024-01-30T10:27:26;10.30;;;7.15;;
80621;SDS011;69980;51.914;7.526;2024-01-30T10:29:51;9.00;;;6.78;;
80621;SDS011;69980;51.914;7.526;2024-01-30T10:32:17;10.05;;;7.10;;
80621;SDS011;69980;51.914;7.526;2024-01-30T10:34:42;10.63;;;6.90;;
80621;SDS011;69980;51.914;7.526;2024-01-30T10:37:08;10.30;;;7.00;;
80621;SDS011;69980;51.914;7.526;2024-01-30T10:39:36;9.43;;;6.88;;
80621;SDS011;69980;51.914;7.526;2024-01-30T10:42:04;10.30;;;6.82;;
80621;SDS011;69980;51.914;7.526;2024-01-30T10:44:30;8.73;;;6.03;;
80621;SDS011;69980;51.914;7.526;2024-01-30T10:47:03;9.95;;;6.20;;
80621;SDS011;69980;51.914;7.526;2024-01-30T10:49:31;8.38;;;5.90;;
80621;SDS011;69980;51.914;7.526;2024-01-30T10:51:57;9.45;;;5.72;;
80621;SDS011;69980;51.914;7.526;2024-01-30T10:54:23;9.95;;;6.57;;
80621;SDS011;69980;51.914;7.526;2024-01-30T10:56:50;8.93;;;6.55;;
80621;SDS011;69980;51.914;7.526;2024-01-30T10:59:15;7.97;;;5.93;;
80621;SDS011;69980;51.914;7.526;2024-01-30T11:01:41;10.18;;;6.78;;
80621;SDS011;69980;51.914;7.526;2024-01-30T11:04:06;9.63;;;6.22;;
80621;SDS011;69980;51.914;7.526;2024-01-30T11:06:32;10.60;;;6.50;;
80621;SDS011;69980;51.914;7.526;2024-01-30T11:09:04;9.32;;;6.40;;
80621;SDS011;69980;51.914;7.526;2024-01-30T11:11:30;8.63;;;6.00;;
80621;SDS011;69980;51.914;7.526;2024-01-30T11:13:55;10.88;;;6.60;;
80621;SDS011;69980;51.914;7.526;2024-01-30T11:16:21;8.27;;;6.28;;
80621;SDS011;69980;51.914;7.526;2024-01-30T11:18:50;11.40;;;6.65;;
80621;SDS011;69980;51.914;7.526;2024-01-30T11:21:15;12.07;;;6.30;;
80621;SDS011;69980;51.914;7.526;2024-01-30T11:23:41;9.48;;;5.90;;
80621;SDS011;69980;51.914;7.526;2024-01-30T11:26:07;7.90;;;5.88;;
80621;SDS011;69980;51.914;7.526;2024-01-30T11:28:35;8.98;;;5.97;;
80621;SDS011;69980;51.914;7.526;2024-01-30T11:31:06;10.85;;;6.20;;
80621;SDS011;69980;51.914;7.526;2024-01-30T11:33:31;9.75;;;5.60;;
80621;SDS011;69980;51.914;7.526;2024-01-30T11:35:57;8.63;;;6.03;;
80621;SDS011;69980;51.914;7.526;2024-01-30T11:38:23;11.93;;;6.70;;
80621;SDS011;69980;51.914;7.526;2024-01-30T11:40:50;8.63;;;6.13;;
80621;SDS011;69980;51.914;7.526;2024-01-30T11:43:16;12.20;;;6.32;;
80621;SDS011;69980;51.914;7.526;2024-01-30T11:45:42;10.02;;;6.43;;
80621;SDS011;69980;51.914;7.526;2024-01-30T11:48:07;8.68;;;6.40;;
80621;SDS011;69980;51.914;7.526;2024-01-30T11:50:33;11.00;;;6.28;;
80621;SDS011;69980;51.914;7.526;2024-01-30T11:53:02;9.07;;;6.05;;
80621;SDS011;69980;51.914;7.526;2024-01-30T11:55:28;9.77;;;6.03;;
80621;SDS011;69980;51.914;7.526;2024-01-30T11:57:57;10.38;;;6.28;;
80621;SDS011;69980;51.914;7.526;2024-01-30T12:00:23;9.52;;;6.03;;
80621;SDS011;69980;51.914;7.526;2024-01-30T12:02:49;8.68;;;6.28;;
80621;SDS011;69980;51.914;7.526;2024-01-30T12:05:14;11.70;;;6.65;;
80621;SDS011;69980;51.914;7.526;2024-01-30T12:07:40;10.77;;;6.10;;
80621;SDS011;69980;51.914;7.526;2024-01-30T12:10:05;10.48;;;6.00;;
80621;SDS011;69980;51.914;7.526;2024-01-30T12:12:31;9.68;;;5.82;;
80621;SDS011;69980;51.914;7.526;2024-01-30T12:14:56;8.75;;;6.10;;
80621;SDS011;69980;51.914;7.526;2024-01-30T12:17:27;10.75;;;6.40;;
80621;SDS011;69980;51.914;7.526;2024-01-30T12:20:03;11.60;;;6.35;;
80621;SDS011;69980;51.914;7.526;2024-01-30T12:22:42;10.10;;;6.28;;
80621;SDS011;69980;51.914;7.526;2024-01-30T12:25:12;8.52;;;6.03;;
80621;SDS011;69980;51.914;7.526;2024-01-30T12:27:39;12.30;;;7.68;;
80621;SDS011;69980;51.914;7.526;2024-01-30T12:30:05;10.00;;;6.68;;
80621;SDS011;69980;51.914;7.526;2024-01-30T12:32:31;12.48;;;6.63;;
80621;SDS011;69980;51.914;7.526;2024-01-30T12:34:56;9.00;;;6.55;;
80621;SDS011;69980;51.914;7.526;2024-01-30T12:37:22;12.85;;;6.90;;
80621;SDS011;69980;51.914;7.526;2024-01-30T12:39:48;12.13;;;7.00;;
80621;SDS011;69980;51.914;7.526;2024-01-30T12:42:13;14.88;;;7.72;;
80621;SDS011;69980;51.914;7.526;2024-01-30T12:44:39;9.35;;;6.45;;
80621;SDS011;69980;51.914;7.526;2024-01-30T12:47:04;13.30;;;6.90;;
80621;SDS011;69980;51.914;7.526;2024-01-30T12:49:30;11.23;;;6.47;;
80621;SDS011;69980;51.914;7.526;2024-01-30T12:51:55;9.90;;;7.10;;
80621;SDS011;69980;51.914;7.526;2024-01-30T12:54:20;12.60;;;7.13;;
80621;SDS011;69980;51.914;7.526;2024-01-30T12:56:46;11.45;;;6.75;;
80621;SDS011;69980;51.914;7.526;2024-01-30T12:59:11;15.73;;;6.97;;
80621;SDS011;69980;51.914;7.526;2024-01-30T13:01:36;9.82;;;6.82;;
80621;SDS011;69980;51.914;7.526;2024-01-30T13:04:02;11.50;;;6.82;;
80621;SDS011;69980;51.914;7.526;2024-01-30T13:06:28;11.10;;;6.78;;
80621;SDS011;69980;51.914;7.526;2024-01-30T13:08:53;11.10;;;7.03;;
80621;SDS011;69980;51.914;7.526;2024-01-30T13:11:18;10.52;;;6.45;;
80621;SDS011;69980;51.914;7.526;2024-01-30T13:13:44;10.15;;;6.60;;
80621;SDS011;69980;51.914;7.526;2024-01-30T13:16:09;11.32;;;6.88;;
80621;SDS011;69980;51.914;7.526;2024-01-30T13:18:34;11.98;;;6.75;;
80621;SDS011;69980;51.914;7.526;2024-01-30T13:20:59;11.27;;;6.72;;
80621;SDS011;69980;51.914;7.526;2024-01-30T13:23:25;11.20;;;6.80;;
80621;SDS011;69980;51.914;7.526;2024-01-30T13:25:50;11.18;;;6.28;;
80621;SDS011;69980;51.914;7.526;2024-01-30T13:28:15;10.25;;;7.10;;
80621;SDS011;69980;51.914;7.526;2024-01-30T13:30:41;11.18;;;6.90;;
80621;SDS011;69980;51.914;7.526;2024-01-30T13:33:06;13.18;;;7.45;;
80621;SDS011;69980;51.914;7.526;2024-01-30T13:35:31;11.25;;;7.03;;
80621;SDS011;69980;51.914;7.526;2024-01-30T13:37:57;11.40;;;7.10;;
80621;SDS011;69980;51.914;7.526;2024-01-30T13:40:22;13.13;;;7.13;;
80621;SDS011;69980;51.914;7.526;2024-01-30T13:42:47;11.75;;;7.05;;
80621;SDS011;69980;51.914;7.526;2024-01-30T13:45:13;10.85;;;6.68;;
80621;SDS011;69980;51.914;7.526;2024-01-30T13:47:38;11.80;;;7.20;;
80621;SDS011;69980;51.914;7.526;2024-01-30T13:50:04;9.88;;;6.15;;
80621;SDS011;69980;51.914;7.526;2024-01-30T13:52:30;14.55;;;7.70;;
80621;SDS011;69980;51.914;7.526;2024-01-30T13:54:56;10.45;;;7.18;;
80621;SDS011;69980;51.914;7.526;2024-01-30T13:57:21;11.05;;;6.85;;
80621;SDS011;69980;51.914;7.526;2024-01-30T13:59:46;9.82;;;6.55;;
80621;SDS011;69980;51.914;7.526;2024-01-30T14:02:12;10.80;;;6.35;;
80621;SDS011;69980;51.914;7.526;2024-01-30T14:04:37;8.07;;;6.05;;
80621;SDS011;69980;51.914;7.526;2024-01-30T14:07:03;10.23;;;6.55;;
80621;SDS011;69980;51.914;7.526;2024-01-30T14:09:29;11.77;;;7.00;;
80621;SDS011;69980;51.914;7.526;2024-01-30T14:11:54;9.45;;;6.75;;
80621;SDS011;69980;51.914;7.526;2024-01-30T14:14:20;11.18;;;6.65;;
80621;SDS011;69980;51.914;7.526;2024-01-30T14:16:45;11.52;;;6.40;;
80621;SDS011;69980;51.914;7.526;2024-01-30T14:19:10;13.57;;;7.63;;
80621;SDS011;69980;51.914;7.526;2024-01-30T14:21:36;10.75;;;7.03;;
80621;SDS011;69980;51.914;7.526;2024-01-30T14:24:01;7.97;;;6.47;;
80621;SDS011;69980;51.914;7.526;2024-01-30T14:26:26;9.75;;;6.80;;